sensor_id;sensor_type;location;lat;lon;timestamp;temperature;humidity
14600;DHT22;7386;45.586;12.854;2022-10-23T00:01:13;15.90;99.90
14600;DHT22;7386;45.586;12.854;2022-10-23T00:03:42;15.90;99.90
14600;DHT22;7386;45.586;12.854;2022-10-23T00:06:11;15.90;99.90
14600;DHT22;7386;45.586;12.854;2022-10-23T00:08:40;15.90;99.90
14600;DHT22;7386;45.586;12.854;2022-10-23T00:11:10;15.90;99.90
14600;DHT22;7386;45.586;12.854;2022-10-23T00:13:39;15.90;99.90
14600;DHT22;7386;45.586;12.854;2022-10-23T00:16:08;15.90;99.90
14600;DHT22;7386;45.586;12.854;2022-10-23T00:18:36;15.90;99.90
14600;DHT22;7386;45.586;12.854;2022-10-23T00:21:08;15.90;99.90
14600;DHT22;7386;45.586;12.854;2022-10-23T00:23:37;15.90;99.90
14600;DHT22;7386;45.586;12.854;2022-10-23T00:26:07;15.90;99.90
14600;DHT22;7386;45.586;12.854;2022-10-23T00:28:37;15.90;99.90
14600;DHT22;7386;45.586;12.854;2022-10-23T00:31:06;15.90;99.90
14600;DHT22;7386;45.586;12.854;2022-10-23T00:33:34;15.90;99.90
14600;DHT22;7386;45.586;12.854;2022-10-23T00:36:06;16.00;99.90
14600;DHT22;7386;45.586;12.854;2022-10-23T00:38:35;16.00;99.90
14600;DHT22;7386;45.586;12.854;2022-10-23T00:41:04;16.00;99.90
14600;DHT22;7386;45.586;12.854;2022-10-23T00:43:33;16.00;99.90
14600;DHT22;7386;45.586;12.854;2022-10-23T00:46:02;16.00;99.90
14600;DHT22;7386;45.586;12.854;2022-10-23T00:48:30;16.00;99.90
14600;DHT22;7386;45.586;12.854;2022-10-23T00:50:58;16.00;99.90
14600;DHT22;7386;45.586;12.854;2022-10-23T00:53:28;16.00;99.90
14600;DHT22;7386;45.586;12.854;2022-10-23T00:55:56;16.00;99.90
14600;DHT22;7386;45.586;12.854;2022-10-23T00:58:25;16.00;99.90
14600;DHT22;7386;45.586;12.854;2022-10-23T01:00:55;16.00;99.90
14600;DHT22;7386;45.586;12.854;2022-10-23T01:03:25;16.20;99.90
14600;DHT22;7386;45.586;12.854;2022-10-23T01:05:59;16.00;99.90
14600;DHT22;7386;45.586;12.854;2022-10-23T01:11:07;16.00;99.90
14600;DHT22;7386;45.586;12.854;2022-10-23T01:16:14;16.10;99.90
14600;DHT22;7386;45.586;12.854;2022-10-23T03:10:05;16.10;99.90
14600;DHT22;7386;45.586;12.854;2022-10-23T03:12:33;15.60;99.90
14600;DHT22;7386;45.586;12.854;2022-10-23T03:15:03;15.60;99.90
14600;DHT22;7386;45.586;12.854;2022-10-23T03:17:32;15.60;99.90
14600;DHT22;7386;45.586;12.854;2022-10-23T03:20:00;15.60;99.90
14600;DHT22;7386;45.586;12.854;2022-10-23T03:22:28;15.60;99.90
14600;DHT22;7386;45.586;12.854;2022-10-23T03:24:56;15.60;99.90
14600;DHT22;7386;45.586;12.854;2022-10-23T03:27:25;15.60;99.90
14600;DHT22;7386;45.586;12.854;2022-10-23T03:29:58;15.50;99.90
14600;DHT22;7386;45.586;12.854;2022-10-23T03:32:27;15.50;99.90
14600;DHT22;7386;45.586;12.854;2022-10-23T03:34:56;15.50;99.90
14600;DHT22;7386;45.586;12.854;2022-10-23T03:42:21;15.50;99.90
14600;DHT22;7386;45.586;12.854;2022-10-23T03:44:49;15.50;99.90
14600;DHT22;7386;45.586;12.854;2022-10-23T03:47:18;15.40;99.90
14600;DHT22;7386;45.586;12.854;2022-10-23T03:49:48;15.40;99.90
14600;DHT22;7386;45.586;12.854;2022-10-23T03:52:16;15.40;99.90
14600;DHT22;7386;45.586;12.854;2022-10-23T03:54:44;15.40;99.90
14600;DHT22;7386;45.586;12.854;2022-10-23T03:57:12;15.40;99.90
14600;DHT22;7386;45.586;12.854;2022-10-23T03:59:41;15.40;99.90
14600;DHT22;7386;45.586;12.854;2022-10-23T04:02:09;15.40;99.90
14600;DHT22;7386;45.586;12.854;2022-10-23T04:04:37;15.40;99.90
14600;DHT22;7386;45.586;12.854;2022-10-23T04:07:07;15.30;99.90
14600;DHT22;7386;45.586;12.854;2022-10-23T04:09:35;15.40;99.90
14600;DHT22;7386;45.586;12.854;2022-10-23T04:12:04;15.40;99.90
14600;DHT22;7386;45.586;12.854;2022-10-23T04:14:32;15.40;99.90
14600;DHT22;7386;45.586;12.854;2022-10-23T04:17:01;15.40;99.90
14600;DHT22;7386;45.586;12.854;2022-10-23T04:19:29;15.50;99.90
14600;DHT22;7386;45.586;12.854;2022-10-23T04:21:57;15.50;99.90
14600;DHT22;7386;45.586;12.854;2022-10-23T04:24:27;15.40;99.90
14600;DHT22;7386;45.586;12.854;2022-10-23T04:26:55;15.40;99.90
14600;DHT22;7386;45.586;12.854;2022-10-23T04:29:24;15.40;99.90
14600;DHT22;7386;45.586;12.854;2022-10-23T04:31:52;15.40;99.90
14600;DHT22;7386;45.586;12.854;2022-10-23T04:34:20;15.40;99.90
14600;DHT22;7386;45.586;12.854;2022-10-23T04:36:48;15.40;99.90
14600;DHT22;7386;45.586;12.854;2022-10-23T04:39:17;15.40;99.90
14600;DHT22;7386;45.586;12.854;2022-10-23T04:41:47;15.40;99.90
14600;DHT22;7386;45.586;12.854;2022-10-23T04:44:15;15.30;99.90
14600;DHT22;7386;45.586;12.854;2022-10-23T04:46:43;15.30;99.90
14600;DHT22;7386;45.586;12.854;2022-10-23T04:49:11;15.30;99.90
14600;DHT22;7386;45.586;12.854;2022-10-23T04:51:40;15.30;99.90
14600;DHT22;7386;45.586;12.854;2022-10-23T04:54:08;15.30;99.90
14600;DHT22;7386;45.586;12.854;2022-10-23T04:56:36;15.20;99.90
14600;DHT22;7386;45.586;12.854;2022-10-23T04:59:06;15.30;99.90
14600;DHT22;7386;45.586;12.854;2022-10-23T05:01:34;15.30;99.90
14600;DHT22;7386;45.586;12.854;2022-10-23T05:04:03;15.30;99.90
14600;DHT22;7386;45.586;12.854;2022-10-23T05:06:31;15.20;99.90
14600;DHT22;7386;45.586;12.854;2022-10-23T05:08:59;15.30;99.90
14600;DHT22;7386;45.586;12.854;2022-10-23T05:11:27;15.30;99.90
14600;DHT22;7386;45.586;12.854;2022-10-23T05:13:56;15.30;99.90
14600;DHT22;7386;45.586;12.854;2022-10-23T05:16:36;15.30;99.90
14600;DHT22;7386;45.586;12.854;2022-10-23T05:19:09;15.30;99.90
14600;DHT22;7386;45.586;12.854;2022-10-23T05:21:40;15.30;99.90
14600;DHT22;7386;45.586;12.854;2022-10-23T05:24:09;15.30;99.90
14600;DHT22;7386;45.586;12.854;2022-10-23T05:26:38;15.30;99.90
14600;DHT22;7386;45.586;12.854;2022-10-23T05:29:06;15.40;99.90
14600;DHT22;7386;45.586;12.854;2022-10-23T05:31:36;15.40;99.90
14600;DHT22;7386;45.586;12.854;2022-10-23T05:34:04;15.30;99.90
14600;DHT22;7386;45.586;12.854;2022-10-23T05:36:38;15.30;99.90
14600;DHT22;7386;45.586;12.854;2022-10-23T05:39:06;15.30;99.90
14600;DHT22;7386;45.586;12.854;2022-10-23T05:41:34;15.30;99.90
14600;DHT22;7386;45.586;12.854;2022-10-23T05:44:03;15.20;99.90
14600;DHT22;7386;45.586;12.854;2022-10-23T05:46:31;15.20;99.90
14600;DHT22;7386;45.586;12.854;2022-10-23T05:49:01;15.20;99.90
14600;DHT22;7386;45.586;12.854;2022-10-23T05:51:29;15.20;99.90
14600;DHT22;7386;45.586;12.854;2022-10-23T05:53:57;15.20;99.90
14600;DHT22;7386;45.586;12.854;2022-10-23T05:56:25;15.20;99.90
14600;DHT22;7386;45.586;12.854;2022-10-23T05:58:53;15.20;99.90
14600;DHT22;7386;45.586;12.854;2022-10-23T06:01:22;15.20;99.90
14600;DHT22;7386;45.586;12.854;2022-10-23T06:03:50;15.20;99.90
14600;DHT22;7386;45.586;12.854;2022-10-23T06:06:20;15.20;99.90
14600;DHT22;7386;45.586;12.854;2022-10-23T06:08:48;15.20;99.90
14600;DHT22;7386;45.586;12.854;2022-10-23T06:11:16;15.20;99.90
14600;DHT22;7386;45.586;12.854;2022-10-23T06:13:45;15.20;99.90
14600;DHT22;7386;45.586;12.854;2022-10-23T06:16:16;15.20;99.90
14600;DHT22;7386;45.586;12.854;2022-10-23T06:18:45;15.20;99.90
14600;DHT22;7386;45.586;12.854;2022-10-23T06:21:14;15.20;99.90
14600;DHT22;7386;45.586;12.854;2022-10-23T06:23:45;15.20;99.90
14600;DHT22;7386;45.586;12.854;2022-10-23T06:26:15;15.30;99.90
14600;DHT22;7386;45.586;12.854;2022-10-23T06:28:43;15.20;99.90
14600;DHT22;7386;45.586;12.854;2022-10-23T06:31:13;15.30;99.90
14600;DHT22;7386;45.586;12.854;2022-10-23T06:33:43;15.30;99.90
14600;DHT22;7386;45.586;12.854;2022-10-23T06:36:12;15.40;99.90
14600;DHT22;7386;45.586;12.854;2022-10-23T06:38:40;15.40;99.90
14600;DHT22;7386;45.586;12.854;2022-10-23T06:41:12;15.40;99.90
14600;DHT22;7386;45.586;12.854;2022-10-23T06:43:41;15.50;99.90
14600;DHT22;7386;45.586;12.854;2022-10-23T06:46:10;15.50;99.90
14600;DHT22;7386;45.586;12.854;2022-10-23T06:48:39;15.50;99.90
14600;DHT22;7386;45.586;12.854;2022-10-23T06:51:11;15.60;99.90
14600;DHT22;7386;45.586;12.854;2022-10-23T06:53:40;15.70;99.90
14600;DHT22;7386;45.586;12.854;2022-10-23T06:56:10;15.70;99.90
14600;DHT22;7386;45.586;12.854;2022-10-23T06:58:39;15.70;99.90
14600;DHT22;7386;45.586;12.854;2022-10-23T07:01:10;15.80;99.90
14600;DHT22;7386;45.586;12.854;2022-10-23T07:03:39;15.90;99.90
14600;DHT22;7386;45.586;12.854;2022-10-23T07:06:08;15.80;99.90
14600;DHT22;7386;45.586;12.854;2022-10-23T07:08:38;15.90;99.90
14600;DHT22;7386;45.586;12.854;2022-10-23T07:11:08;15.90;99.90
14600;DHT22;7386;45.586;12.854;2022-10-23T07:13:38;16.10;99.90
14600;DHT22;7386;45.586;12.854;2022-10-23T07:16:10;16.00;99.90
14600;DHT22;7386;45.586;12.854;2022-10-23T07:18:39;16.00;99.90
14600;DHT22;7386;45.586;12.854;2022-10-23T07:21:07;16.10;99.90
14600;DHT22;7386;45.586;12.854;2022-10-23T07:23:36;16.20;99.90
14600;DHT22;7386;45.586;12.854;2022-10-23T07:26:06;16.20;99.90
14600;DHT22;7386;45.586;12.854;2022-10-23T07:28:34;16.20;99.90
14600;DHT22;7386;45.586;12.854;2022-10-23T07:31:04;16.30;99.90
14600;DHT22;7386;45.586;12.854;2022-10-23T07:33:32;16.30;99.90
14600;DHT22;7386;45.586;12.854;2022-10-23T07:36:03;16.40;99.90
14600;DHT22;7386;45.586;12.854;2022-10-23T07:38:32;16.40;99.90
14600;DHT22;7386;45.586;12.854;2022-10-23T07:41:00;16.50;99.90
14600;DHT22;7386;45.586;12.854;2022-10-23T07:43:28;16.60;99.90
14600;DHT22;7386;45.586;12.854;2022-10-23T07:45:58;16.60;99.90
14600;DHT22;7386;45.586;12.854;2022-10-23T07:48:28;16.60;99.90
14600;DHT22;7386;45.586;12.854;2022-10-23T07:50:57;16.70;99.90
14600;DHT22;7386;45.586;12.854;2022-10-23T07:53:27;16.80;99.90
14600;DHT22;7386;45.586;12.854;2022-10-23T07:55:57;16.80;99.90
14600;DHT22;7386;45.586;12.854;2022-10-23T07:58:26;16.80;99.90
14600;DHT22;7386;45.586;12.854;2022-10-23T08:00:56;16.90;99.90
14600;DHT22;7386;45.586;12.854;2022-10-23T08:03:25;16.90;99.90
14600;DHT22;7386;45.586;12.854;2022-10-23T08:05:55;17.00;99.90
14600;DHT22;7386;45.586;12.854;2022-10-23T08:08:24;17.10;99.90
14600;DHT22;7386;45.586;12.854;2022-10-23T08:10:53;17.10;99.90
14600;DHT22;7386;45.586;12.854;2022-10-23T08:13:22;17.20;99.90
14600;DHT22;7386;45.586;12.854;2022-10-23T08:15:51;17.30;99.90
14600;DHT22;7386;45.586;12.854;2022-10-23T08:18:20;17.30;99.90
14600;DHT22;7386;45.586;12.854;2022-10-23T08:20:48;17.40;99.90
14600;DHT22;7386;45.586;12.854;2022-10-23T08:23:19;17.50;99.90
14600;DHT22;7386;45.586;12.854;2022-10-23T08:25:48;17.50;99.90
14600;DHT22;7386;45.586;12.854;2022-10-23T08:28:16;17.50;99.90
14600;DHT22;7386;45.586;12.854;2022-10-23T08:30:44;17.50;99.90
14600;DHT22;7386;45.586;12.854;2022-10-23T08:33:12;17.60;99.90
14600;DHT22;7386;45.586;12.854;2022-10-23T08:35:40;17.60;99.90
14600;DHT22;7386;45.586;12.854;2022-10-23T08:38:09;17.60;99.90
14600;DHT22;7386;45.586;12.854;2022-10-23T08:40:43;17.70;99.90
14600;DHT22;7386;45.586;12.854;2022-10-23T08:43:18;17.80;99.90
14600;DHT22;7386;45.586;12.854;2022-10-23T08:45:50;17.90;99.90
14600;DHT22;7386;45.586;12.854;2022-10-23T08:48:24;18.00;99.90
14600;DHT22;7386;45.586;12.854;2022-10-23T08:50:56;17.90;99.90
14600;DHT22;7386;45.586;12.854;2022-10-23T08:53:30;18.00;99.90
14600;DHT22;7386;45.586;12.854;2022-10-23T08:56:05;18.00;99.90
14600;DHT22;7386;45.586;12.854;2022-10-23T08:58:36;18.10;99.90
14600;DHT22;7386;45.586;12.854;2022-10-23T09:01:36;18.20;99.90
14600;DHT22;7386;45.586;12.854;2022-10-23T09:04:06;18.20;99.90
14600;DHT22;7386;45.586;12.854;2022-10-23T09:06:41;18.30;99.90
14600;DHT22;7386;45.586;12.854;2022-10-23T09:09:28;18.30;99.90
14600;DHT22;7386;45.586;12.854;2022-10-23T09:12:04;18.40;99.90
14600;DHT22;7386;45.586;12.854;2022-10-23T09:14:47;18.40;99.90
14600;DHT22;7386;45.586;12.854;2022-10-23T09:17:23;18.40;99.90
14600;DHT22;7386;45.586;12.854;2022-10-23T09:19:58;18.40;99.90
14600;DHT22;7386;45.586;12.854;2022-10-23T09:22:27;18.50;99.90
14600;DHT22;7386;45.586;12.854;2022-10-23T09:24:55;18.50;99.90
14600;DHT22;7386;45.586;12.854;2022-10-23T09:27:25;18.60;99.90
14600;DHT22;7386;45.586;12.854;2022-10-23T09:29:54;18.60;99.90
14600;DHT22;7386;45.586;12.854;2022-10-23T09:32:32;18.70;99.90
14600;DHT22;7386;45.586;12.854;2022-10-23T09:35:00;18.70;99.90
14600;DHT22;7386;45.586;12.854;2022-10-23T09:37:30;18.80;99.90
14600;DHT22;7386;45.586;12.854;2022-10-23T09:40:14;18.80;99.90
14600;DHT22;7386;45.586;12.854;2022-10-23T09:42:53;18.90;99.90
14600;DHT22;7386;45.586;12.854;2022-10-23T09:45:28;18.90;99.90
14600;DHT22;7386;45.586;12.854;2022-10-23T09:48:13;18.90;99.90
14600;DHT22;7386;45.586;12.854;2022-10-23T09:50:47;19.00;99.90
14600;DHT22;7386;45.586;12.854;2022-10-23T09:53:17;19.00;99.90
14600;DHT22;7386;45.586;12.854;2022-10-23T09:55:52;19.10;99.90
14600;DHT22;7386;45.586;12.854;2022-10-23T09:58:29;19.10;99.90
14600;DHT22;7386;45.586;12.854;2022-10-23T10:00:59;19.10;99.90
14600;DHT22;7386;45.586;12.854;2022-10-23T10:03:27;19.20;99.90
14600;DHT22;7386;45.586;12.854;2022-10-23T10:05:58;19.20;99.90
14600;DHT22;7386;45.586;12.854;2022-10-23T10:08:39;19.30;99.90
14600;DHT22;7386;45.586;12.854;2022-10-23T10:11:14;19.30;99.90
14600;DHT22;7386;45.586;12.854;2022-10-23T10:14:02;19.40;99.90
14600;DHT22;7386;45.586;12.854;2022-10-23T10:16:43;19.40;99.90
14600;DHT22;7386;45.586;12.854;2022-10-23T10:19:22;19.50;99.90
14600;DHT22;7386;45.586;12.854;2022-10-23T10:22:02;19.50;99.90
14600;DHT22;7386;45.586;12.854;2022-10-23T10:24:39;19.50;99.90
14600;DHT22;7386;45.586;12.854;2022-10-23T10:27:15;19.50;99.90
14600;DHT22;7386;45.586;12.854;2022-10-23T10:29:58;19.60;99.90
14600;DHT22;7386;45.586;12.854;2022-10-23T10:32:35;19.60;99.90
14600;DHT22;7386;45.586;12.854;2022-10-23T10:35:33;19.60;99.90
14600;DHT22;7386;45.586;12.854;2022-10-23T10:41:19;19.70;99.90
14600;DHT22;7386;45.586;12.854;2022-10-23T10:44:02;19.80;99.90
14600;DHT22;7386;45.586;12.854;2022-10-23T10:46:40;19.80;99.90
14600;DHT22;7386;45.586;12.854;2022-10-23T10:49:15;19.80;99.90
14600;DHT22;7386;45.586;12.854;2022-10-23T10:51:51;19.80;99.90
14600;DHT22;7386;45.586;12.854;2022-10-23T10:54:32;19.90;99.90
14600;DHT22;7386;45.586;12.854;2022-10-23T10:57:11;19.90;99.90
14600;DHT22;7386;45.586;12.854;2022-10-23T10:59:43;19.90;99.90
14600;DHT22;7386;45.586;12.854;2022-10-23T11:02:22;20.00;99.90
14600;DHT22;7386;45.586;12.854;2022-10-23T11:04:59;20.00;99.90
14600;DHT22;7386;45.586;12.854;2022-10-23T11:07:33;20.00;99.90
14600;DHT22;7386;45.586;12.854;2022-10-23T11:10:05;20.00;99.90
14600;DHT22;7386;45.586;12.854;2022-10-23T11:12:42;20.10;99.90
14600;DHT22;7386;45.586;12.854;2022-10-23T11:15:13;20.10;99.90
14600;DHT22;7386;45.586;12.854;2022-10-23T11:17:47;20.10;99.90
14600;DHT22;7386;45.586;12.854;2022-10-23T11:20:48;20.10;99.90
14600;DHT22;7386;45.586;12.854;2022-10-23T11:23:47;20.10;99.90
14600;DHT22;7386;45.586;12.854;2022-10-23T11:26:42;20.20;99.90
14600;DHT22;7386;45.586;12.854;2022-10-23T11:29:39;20.20;99.90
14600;DHT22;7386;45.586;12.854;2022-10-23T11:32:24;20.20;99.90
14600;DHT22;7386;45.586;12.854;2022-10-23T11:35:05;20.20;99.90
14600;DHT22;7386;45.586;12.854;2022-10-23T11:37:39;20.30;99.90
14600;DHT22;7386;45.586;12.854;2022-10-23T11:40:21;20.30;99.90
14600;DHT22;7386;45.586;12.854;2022-10-23T11:42:50;20.30;99.90
14600;DHT22;7386;45.586;12.854;2022-10-23T11:45:33;20.30;99.90
14600;DHT22;7386;45.586;12.854;2022-10-23T11:48:03;20.30;99.90
14600;DHT22;7386;45.586;12.854;2022-10-23T11:50:50;20.40;99.90
14600;DHT22;7386;45.586;12.854;2022-10-23T11:53:25;20.40;99.90
14600;DHT22;7386;45.586;12.854;2022-10-23T11:55:58;20.40;99.90
14600;DHT22;7386;45.586;12.854;2022-10-23T11:58:28;20.40;99.90
14600;DHT22;7386;45.586;12.854;2022-10-23T12:01:19;20.40;99.90
14600;DHT22;7386;45.586;12.854;2022-10-23T12:03:53;20.40;99.90
14600;DHT22;7386;45.586;12.854;2022-10-23T12:06:25;20.40;99.90
14600;DHT22;7386;45.586;12.854;2022-10-23T12:08:57;20.40;99.90
14600;DHT22;7386;45.586;12.854;2022-10-23T12:11:38;20.40;99.90
14600;DHT22;7386;45.586;12.854;2022-10-23T12:14:28;20.40;99.90
14600;DHT22;7386;45.586;12.854;2022-10-23T12:16:57;20.40;99.90
14600;DHT22;7386;45.586;12.854;2022-10-23T12:19:28;20.40;99.90
14600;DHT22;7386;45.586;12.854;2022-10-23T12:22:00;20.50;99.90
14600;DHT22;7386;45.586;12.854;2022-10-23T12:24:53;20.40;99.90
14600;DHT22;7386;45.586;12.854;2022-10-23T12:27:31;20.40;99.90
14600;DHT22;7386;45.586;12.854;2022-10-23T12:30:15;20.40;99.90
14600;DHT22;7386;45.586;12.854;2022-10-23T12:33:07;20.40;99.90
14600;DHT22;7386;45.586;12.854;2022-10-23T12:36:14;20.40;99.90
14600;DHT22;7386;45.586;12.854;2022-10-23T12:38:46;20.40;99.90
14600;DHT22;7386;45.586;12.854;2022-10-23T12:41:18;20.40;99.90
14600;DHT22;7386;45.586;12.854;2022-10-23T12:43:51;20.50;99.90
14600;DHT22;7386;45.586;12.854;2022-10-23T12:46:34;20.50;99.90
14600;DHT22;7386;45.586;12.854;2022-10-23T12:49:12;20.50;99.90
14600;DHT22;7386;45.586;12.854;2022-10-23T12:51:41;20.50;99.90
14600;DHT22;7386;45.586;12.854;2022-10-23T12:54:15;20.50;99.90
14600;DHT22;7386;45.586;12.854;2022-10-23T12:56:44;20.50;99.90
14600;DHT22;7386;45.586;12.854;2022-10-23T12:59:15;20.50;99.90
14600;DHT22;7386;45.586;12.854;2022-10-23T13:01:44;20.50;99.90
14600;DHT22;7386;45.586;12.854;2022-10-23T13:04:25;20.50;99.90
14600;DHT22;7386;45.586;12.854;2022-10-23T13:06:55;20.40;99.90
14600;DHT22;7386;45.586;12.854;2022-10-23T13:09:28;20.40;99.90
14600;DHT22;7386;45.586;12.854;2022-10-23T13:11:57;20.40;99.90
14600;DHT22;7386;45.586;12.854;2022-10-23T13:14:33;20.50;99.90
14600;DHT22;7386;45.586;12.854;2022-10-23T13:17:09;20.50;99.90
14600;DHT22;7386;45.586;12.854;2022-10-23T13:19:38;20.50;99.90
14600;DHT22;7386;45.586;12.854;2022-10-23T13:22:15;20.50;99.90
14600;DHT22;7386;45.586;12.854;2022-10-23T13:24:46;20.50;99.90
14600;DHT22;7386;45.586;12.854;2022-10-23T13:27:24;20.50;99.90
14600;DHT22;7386;45.586;12.854;2022-10-23T13:29:53;20.50;99.90
14600;DHT22;7386;45.586;12.854;2022-10-23T13:32:24;20.60;99.90
14600;DHT22;7386;45.586;12.854;2022-10-23T13:34:54;20.60;99.90
14600;DHT22;7386;45.586;12.854;2022-10-23T13:37:42;20.60;99.90
14600;DHT22;7386;45.586;12.854;2022-10-23T13:40:22;20.60;99.90
14600;DHT22;7386;45.586;12.854;2022-10-23T13:42:52;20.60;99.90
14600;DHT22;7386;45.586;12.854;2022-10-23T13:45:22;20.50;99.90
14600;DHT22;7386;45.586;12.854;2022-10-23T13:47:51;20.50;99.90
14600;DHT22;7386;45.586;12.854;2022-10-23T13:50:19;20.50;99.90
14600;DHT22;7386;45.586;12.854;2022-10-23T13:52:47;20.50;99.90
14600;DHT22;7386;45.586;12.854;2022-10-23T13:55:21;20.50;99.90
14600;DHT22;7386;45.586;12.854;2022-10-23T13:57:50;20.50;99.90
14600;DHT22;7386;45.586;12.854;2022-10-23T14:00:19;20.50;99.90
14600;DHT22;7386;45.586;12.854;2022-10-23T14:02:47;20.50;99.90
14600;DHT22;7386;45.586;12.854;2022-10-23T14:05:15;20.50;99.90
14600;DHT22;7386;45.586;12.854;2022-10-23T14:07:43;20.50;99.90
14600;DHT22;7386;45.586;12.854;2022-10-23T14:10:12;20.50;99.90
14600;DHT22;7386;45.586;12.854;2022-10-23T14:12:43;20.50;99.90
14600;DHT22;7386;45.586;12.854;2022-10-23T14:15:11;20.50;99.90
14600;DHT22;7386;45.586;12.854;2022-10-23T14:17:40;20.50;99.90
14600;DHT22;7386;45.586;12.854;2022-10-23T14:20:09;20.50;99.90
14600;DHT22;7386;45.586;12.854;2022-10-23T14:22:37;20.50;99.90
14600;DHT22;7386;45.586;12.854;2022-10-23T14:25:06;20.60;99.90
14600;DHT22;7386;45.586;12.854;2022-10-23T14:27:47;20.60;99.90
14600;DHT22;7386;45.586;12.854;2022-10-23T14:30:16;20.60;99.90
14600;DHT22;7386;45.586;12.854;2022-10-23T14:32:44;20.60;99.90
14600;DHT22;7386;45.586;12.854;2022-10-23T14:35:13;20.60;99.90
14600;DHT22;7386;45.586;12.854;2022-10-23T14:37:41;20.60;99.90
14600;DHT22;7386;45.586;12.854;2022-10-23T14:40:10;20.40;99.90
14600;DHT22;7386;45.586;12.854;2022-10-23T14:42:38;20.60;99.90
14600;DHT22;7386;45.586;12.854;2022-10-23T14:45:09;20.60;99.90
14600;DHT22;7386;45.586;12.854;2022-10-23T14:47:37;20.60;99.90
14600;DHT22;7386;45.586;12.854;2022-10-23T14:50:06;20.60;99.90
14600;DHT22;7386;45.586;12.854;2022-10-23T14:52:35;20.60;99.90
14600;DHT22;7386;45.586;12.854;2022-10-23T14:55:03;20.60;99.90
14600;DHT22;7386;45.586;12.854;2022-10-23T14:57:32;20.60;99.90
14600;DHT22;7386;45.586;12.854;2022-10-23T15:00:00;20.60;99.90
14600;DHT22;7386;45.586;12.854;2022-10-23T15:02:30;20.60;99.90
14600;DHT22;7386;45.586;12.854;2022-10-23T15:04:58;20.60;99.90
14600;DHT22;7386;45.586;12.854;2022-10-23T15:07:26;20.60;99.90
14600;DHT22;7386;45.586;12.854;2022-10-23T15:09:55;20.60;99.90
14600;DHT22;7386;45.586;12.854;2022-10-23T15:12:23;20.50;99.90
14600;DHT22;7386;45.586;12.854;2022-10-23T15:14:51;20.60;99.90
14600;DHT22;7386;45.586;12.854;2022-10-23T15:17:19;20.50;99.90
14600;DHT22;7386;45.586;12.854;2022-10-23T15:19:49;20.50;99.90
14600;DHT22;7386;45.586;12.854;2022-10-23T15:22:17;20.50;99.90
14600;DHT22;7386;45.586;12.854;2022-10-23T15:24:45;20.40;99.90
14600;DHT22;7386;45.586;12.854;2022-10-23T15:27:14;20.40;99.90
14600;DHT22;7386;45.586;12.854;2022-10-23T15:29:43;20.40;99.90
14600;DHT22;7386;45.586;12.854;2022-10-23T15:32:11;20.40;99.90
14600;DHT22;7386;45.586;12.854;2022-10-23T15:34:39;20.40;99.90
14600;DHT22;7386;45.586;12.854;2022-10-23T15:37:10;20.40;99.90
14600;DHT22;7386;45.586;12.854;2022-10-23T15:39:38;20.40;99.90
14600;DHT22;7386;45.586;12.854;2022-10-23T15:42:06;20.30;99.90
14600;DHT22;7386;45.586;12.854;2022-10-23T15:44:35;20.30;99.90
14600;DHT22;7386;45.586;12.854;2022-10-23T15:47:04;20.30;99.90
14600;DHT22;7386;45.586;12.854;2022-10-23T15:49:32;20.30;99.90
14600;DHT22;7386;45.586;12.854;2022-10-23T15:52:00;20.30;99.90
14600;DHT22;7386;45.586;12.854;2022-10-23T15:54:31;20.20;99.90
14600;DHT22;7386;45.586;12.854;2022-10-23T15:56:59;20.20;99.90
14600;DHT22;7386;45.586;12.854;2022-10-23T15:59:29;20.30;99.90
14600;DHT22;7386;45.586;12.854;2022-10-23T16:01:58;20.30;99.90
14600;DHT22;7386;45.586;12.854;2022-10-23T16:04:26;20.20;99.90
14600;DHT22;7386;45.586;12.854;2022-10-23T16:06:55;20.20;99.90
14600;DHT22;7386;45.586;12.854;2022-10-23T16:09:23;20.20;99.90
14600;DHT22;7386;45.586;12.854;2022-10-23T16:11:53;20.10;99.90
14600;DHT22;7386;45.586;12.854;2022-10-23T16:14:21;20.20;99.90
14600;DHT22;7386;45.586;12.854;2022-10-23T16:16:49;20.30;99.90
14600;DHT22;7386;45.586;12.854;2022-10-23T16:19:17;20.30;99.90
14600;DHT22;7386;45.586;12.854;2022-10-23T16:21:46;20.20;99.90
14600;DHT22;7386;45.586;12.854;2022-10-23T16:24:14;20.30;99.90
14600;DHT22;7386;45.586;12.854;2022-10-23T16:26:42;20.30;99.90
14600;DHT22;7386;45.586;12.854;2022-10-23T16:29:18;20.30;99.90
14600;DHT22;7386;45.586;12.854;2022-10-23T16:31:46;20.30;99.90
14600;DHT22;7386;45.586;12.854;2022-10-23T16:34:14;20.30;99.90
14600;DHT22;7386;45.586;12.854;2022-10-23T16:36:43;20.30;99.90
14600;DHT22;7386;45.586;12.854;2022-10-23T16:39:13;20.30;99.90
14600;DHT22;7386;45.586;12.854;2022-10-23T16:41:41;20.30;99.90
14600;DHT22;7386;45.586;12.854;2022-10-23T16:44:10;20.20;99.90
14600;DHT22;7386;45.586;12.854;2022-10-23T16:46:39;20.20;99.90
14600;DHT22;7386;45.586;12.854;2022-10-23T16:49:08;20.20;99.90
14600;DHT22;7386;45.586;12.854;2022-10-23T16:51:36;20.20;99.90
14600;DHT22;7386;45.586;12.854;2022-10-23T16:54:04;20.20;99.90
14600;DHT22;7386;45.586;12.854;2022-10-23T16:56:32;20.20;99.90
14600;DHT22;7386;45.586;12.854;2022-10-23T16:59:01;20.10;99.90
14600;DHT22;7386;45.586;12.854;2022-10-23T17:01:31;20.10;99.90
14600;DHT22;7386;45.586;12.854;2022-10-23T17:04:00;20.10;99.90
14600;DHT22;7386;45.586;12.854;2022-10-23T17:06:30;20.10;99.90
14600;DHT22;7386;45.586;12.854;2022-10-23T17:09:00;20.10;99.90
14600;DHT22;7386;45.586;12.854;2022-10-23T17:11:30;20.10;99.90
14600;DHT22;7386;45.586;12.854;2022-10-23T17:14:00;20.10;99.90
14600;DHT22;7386;45.586;12.854;2022-10-23T17:16:30;20.10;99.90
14600;DHT22;7386;45.586;12.854;2022-10-23T17:19:02;20.10;99.90
14600;DHT22;7386;45.586;12.854;2022-10-23T17:21:52;20.10;99.90
14600;DHT22;7386;45.586;12.854;2022-10-23T17:24:21;20.10;99.90
14600;DHT22;7386;45.586;12.854;2022-10-23T17:26:50;20.00;99.90
14600;DHT22;7386;45.586;12.854;2022-10-23T17:29:19;20.10;99.90
14600;DHT22;7386;45.586;12.854;2022-10-23T17:31:48;20.00;99.90
14600;DHT22;7386;45.586;12.854;2022-10-23T17:34:20;19.90;99.90
14600;DHT22;7386;45.586;12.854;2022-10-23T17:36:51;20.00;99.90
14600;DHT22;7386;45.586;12.854;2022-10-23T17:39:21;20.10;99.90
14600;DHT22;7386;45.586;12.854;2022-10-23T17:41:50;20.10;99.90
14600;DHT22;7386;45.586;12.854;2022-10-23T17:44:19;20.10;99.90
14600;DHT22;7386;45.586;12.854;2022-10-23T17:46:49;20.10;99.90
14600;DHT22;7386;45.586;12.854;2022-10-23T17:49:21;20.10;99.90
14600;DHT22;7386;45.586;12.854;2022-10-23T17:51:50;20.20;99.90
14600;DHT22;7386;45.586;12.854;2022-10-23T17:54:19;20.10;99.90
14600;DHT22;7386;45.586;12.854;2022-10-23T17:56:47;20.10;99.90
14600;DHT22;7386;45.586;12.854;2022-10-23T17:59:16;20.00;99.90
14600;DHT22;7386;45.586;12.854;2022-10-23T18:01:45;20.10;99.90